Flight Track Log - Related Links

Times and Time Zones

All times are in EDT time to prevent confusion due to time zone crossing. See the AWE1495 flight status page for this flight to view local times or setup timezone preferences in your user account.

Time Position Orientation Groundspeed Altitude Reporting Facility
EDT Latitude Longitude Course Direction KTS MPH feet Rate Location/Type
Sun 03:04:09 PM 42.7194 -73.8078 180° South 186 214 1,500  Level Boston Center
Sun 03:05:06 PM 42.6692 -73.8267 195° South 207 238 3,800 2,810 Climbing Boston Center
Sun 03:05:28 PM 42.6689 -73.8492 269° West 221 254 5,200 3,400 Climbing Boston Center
Sun 03:06:00 PM 42.5244 -74.0460 171° South  Level Estimated
Sun 03:06:06 PM 42.6889 -73.9033 297° West 249 287 7,200  Level Boston Center
Sun 03:07:00 PM 42.4494 -74.1270 180° South  Level Estimated
Sun 03:07:18 PM 42.7275 -73.9778 305° West 243 280 9,700  Level Boston Center
Sun 03:08:00 PM 42.3744 -74.2077 170° South  Level Estimated
Sun 03:08:18 PM 42.7742 -74.0778 302° West 256 295 13,000  Level Boston Center
Sun 03:09:00 PM 42.2993 -74.2883 180° South  Level Estimated
Sun 03:09:18 PM 42.7833 -74.1686 278° West 248 285 15,500  Level Boston Center
Sun 03:10:18 PM 42.7119 -74.1978 197° South 200 230 17,400 2,250 Climbing Boston Center
Sun 03:11:18 PM 42.6189 -74.1442 157° South 264 304 20,000 1,950 Climbing Boston Center
Sun 03:12:18 PM 42.5281 -74.0856 155° Southeast 320 368 21,300 1,400 Climbing Boston Center
Sun 03:13:18 PM 42.4311 -74.0239 155° Southeast 370 426 22,800 1,500 Climbing Boston Center
Sun 03:14:18 PM 42.3278 -73.9567 154° Southeast 409 471 24,300 1,500 Climbing Boston Center
Sun 03:15:18 PM 42.2222 -73.8894 155° Southeast 421 484 25,800 1,273 Climbing Boston Center
Sun 03:16:30 PM 42.1147 -73.8200 154° Southeast 421 484 27,100 1,000 Climbing Boston Center
Sun 03:17:30 PM 41.9844 -73.7389 155° Southeast 427 491 28,000 750 Climbing Boston Center
Sun 03:18:30 PM 41.8781 -73.7394 180° South 397 457 28,600 500 Climbing Boston Center
Sun 03:19:30 PM 41.7878 -73.7961 205° Southwest 368 423 29,000 200 Climbing Boston Center
Sun 03:20:30 PM 41.6808 -73.8606 204° Southwest 384 442 29,000 736 Level Boston Center
Sun 03:22:13 PM 41.4886 -73.9781 205° Southwest 408 470 31,000 1,098 Climbing New York Center
Sun 03:23:14 PM 41.3828 -74.0450 205° Southwest 415 478 32,000 496 Climbing New York Center
Sun 03:24:14 PM 41.2747 -74.1142 206° Southwest 420 483 32,000 397 Level New York Center
Sun 03:25:15 PM 41.1767 -74.1919 211° Southwest 420 483 32,800 836 Climbing New York Center
Sun 03:26:16 PM 41.0906 -74.2839 219° Southwest 414 476 33,700 610 Climbing New York Center
Sun 03:27:13 PM 41.0106 -74.3842 223° Southwest 407 468 34,000 154 Climbing New York Center
Sun 03:28:13 PM 40.9242 -74.4786 220° Southwest 402 463 34,000  Level New York Center
Sun 03:29:14 PM 40.8400 -74.5753 221° Southwest 402 463 34,000  Level New York Center
Sun 03:30:14 PM 40.7575 -74.6722 222° Southwest 402 463 34,000  Level New York Center
Sun 03:31:15 PM 40.6753 -74.7661 221° Southwest 402 463 34,000  Level New York Center
Sun 03:32:15 PM 40.5908 -74.8622 221° Southwest 402 463 34,000  Level New York Center
Sun 03:33:15 PM 40.5147 -74.9506 221° Southwest 402 463 34,000  Level New York Center
Sun 03:34:13 PM 40.4278 -75.0461 220° Southwest 402 463 34,000  Level New York Center
Sun 03:35:13 PM 40.3472 -75.1419 222° Southwest 402 463 34,000  Level New York Center
Sun 03:36:14 PM 40.2625 -75.2344 220° Southwest 402 463 34,000  Level New York Center
Sun 03:37:15 PM 40.1753 -75.3319 221° Southwest 402 463 34,000  Level New York Center
Sun 03:38:13 PM 40.0944 -75.4325 224° Southwest 402 463 34,000  Level New York Center
Sun 03:39:13 PM 40.0150 -75.5411 226° Southwest 407 468 34,000  Level New York Center
Sun 03:40:13 PM 39.9397 -75.6469 227° Southwest 407 468 34,000  Level New York Center
Sun 03:41:16 PM 39.8683 -75.7583 230° Southwest 407 468 34,000  Level New York Center
Sun 03:42:13 PM 39.7947 -75.8719 230° Southwest 412 474 34,000  Level New York Center
Sun 03:43:13 PM 39.7231 -75.9856 231° Southwest 412 474 34,000  Level New York Center
Sun 03:45:21 PM 39.5703 -76.2269 231° Southwest 395 455 34,000  Level Washington Center
Sun 03:46:19 PM 39.5008 -76.3339 230° Southwest 400 460 34,000  Level Washington Center
Sun 03:47:19 PM 39.4294 -76.4433 230° Southwest 400 460 34,000  Level Washington Center
Sun 03:48:20 PM 39.3556 -76.5497 228° Southwest 400 460 34,000  Level Washington Center
Sun 03:49:20 PM 39.2858 -76.6614 231° Southwest 400 460 34,000  Level Washington Center
Sun 03:50:21 PM 39.2161 -76.7703 230° Southwest 400 460 34,000  Level Washington Center
Sun 03:51:19 PM 39.1483 -76.8789 231° Southwest 400 460 34,000  Level Washington Center
Sun 03:52:19 PM 39.0803 -76.9847 230° Southwest 400 460 34,000  Level Washington Center
Sun 03:53:19 PM 39.0022 -77.0847 225° Southwest 395 455 34,000  Level Washington Center
Sun 03:54:19 PM 38.9175 -77.1792 221° Southwest 400 460 34,000  Level Washington Center
Sun 03:55:20 PM 38.8414 -77.2600 220° Southwest 406 467 34,000  Level Washington Center
Sun 03:56:20 PM 38.7525 -77.3567 220° Southwest 411 473 34,000  Level Washington Center
Sun 03:57:21 PM 38.6656 -77.4528 221° Southwest 416 479 34,000  Level Washington Center
Sun 03:58:21 PM 38.5806 -77.5436 220° Southwest 410 472 34,000  Level Washington Center
Sun 03:59:19 PM 38.4958 -77.6369 221° Southwest 410 472 34,000  Level Washington Center
Sun 04:00:20 PM 38.4086 -77.7300 220° Southwest 410 472 34,000  Level Washington Center
Sun 04:01:21 PM 38.3256 -77.8203 220° Southwest 410 472 34,000  Level Washington Center
Sun 04:02:19 PM 38.2383 -77.9128 220° Southwest 410 472 34,000  Level Washington Center
Sun 04:03:19 PM 38.1553 -78.0053 221° Southwest 410 472 34,000  Level Washington Center
Sun 04:04:20 PM 38.0700 -78.0947 220° Southwest 410 472 34,000  Level Washington Center
Sun 04:05:21 PM 37.9864 -78.1975 224° Southwest 404 465 34,000  Level Washington Center
Sun 04:06:19 PM 37.9219 -78.2900 229° Southwest 391 450 34,000  Level Washington Center
Sun 04:07:19 PM 37.8486 -78.3978 229° Southwest 396 456 34,000  Level Washington Center
Sun 04:08:20 PM 37.7750 -78.5003 228° Southwest 401 461 34,000  Level Washington Center
Sun 04:09:20 PM 37.7017 -78.6050 229° Southwest 401 461 34,000  Level Washington Center
Sun 04:10:19 PM 37.6214 -78.7225 229° Southwest 401 461 34,000 -200 Level Washington Center
Sun 04:11:20 PM 37.5356 -78.8158 221° Southwest 401 461 33,600 -545 Descending Washington Center
Sun 04:12:20 PM 37.4456 -78.9008 217° Southwest 401 461 32,900 -655 Descending Washington Center
Sun 04:13:19 PM 37.3556 -78.9911 219° Southwest 413 475 32,300 -655 Descending Washington Center
Sun 04:14:19 PM 37.2739 -79.0736 219° Southwest 419 482 31,600 -645 Descending Washington Center
Sun 04:15:20 PM 37.1836 -79.1633 218° Southwest 424 488 31,000 -295 Descending Washington Center
Sun 04:16:21 PM 37.0911 -79.2503 217° Southwest 424 488 31,000  Level Washington Center
Sun 04:17:19 PM 37.0031 -79.3397 219° Southwest 424 488 31,000  Level Washington Center
Sun 04:18:20 PM 36.9039 -79.4386 219° Southwest 419 482 31,000 -443 Level Washington Center
Sun 04:19:21 PM 36.8242 -79.5178 218° Southwest 419 482 30,100 -1,008 Descending Washington Center
Sun 04:20:19 PM 36.7206 -79.6161 217° Southwest 424 488 29,000 -1,424 Descending Washington Center
Sun 04:21:19 PM 36.6275 -79.7122 220° Southwest 429 494 27,300 -1,718 Descending Washington Center
Sun 04:24:20 PM 36.3536 -79.9656 217° Southwest 417 480 22,100 -1,344 Descending Atlanta Center
Sun 04:25:20 PM 36.2583 -80.0528 216° Southwest 388 447 21,900 -700 Descending Atlanta Center
Sun 04:26:20 PM 36.1672 -80.1319 215° Southwest 388 447 20,700 -1,300 Descending Atlanta Center
Sun 04:27:20 PM 36.0819 -80.2056 215° Southwest 388 447 19,300 -1,550 Descending Atlanta Center
Sun 04:28:20 PM 35.9983 -80.2711 212° Southwest 382 440 17,600 -2,100 Descending Atlanta Center
Sun 04:29:20 PM 35.9172 -80.3439 216° Southwest 368 423 15,100 -2,350 Descending Atlanta Center
Sun 04:30:20 PM 35.8378 -80.4117 215° Southwest 363 418 12,900 -1,605 Descending Atlanta Center
Sun 04:30:46 PM 35.8094 -80.4411 220° Southwest 320 368 12,800 -1,300 Descending Atlanta Center
Sun 04:31:20 PM 35.7686 -80.4711 211° Southwest 343 395 11,600 -1,770 Descending Atlanta Center
Sun 04:31:47 PM 35.7381 -80.4981 216° Southwest 295 339 11,000 -1,200 Descending Atlanta Center
Sun 04:32:20 PM 35.6972 -80.5253 208° Southwest 310 357 10,400 -1,279 Descending Atlanta Center
Sun 04:32:48 PM 35.6642 -80.5419 202° Southwest 293 337 9,700 -1,500 Descending Atlanta Center
Sun 04:33:20 PM 35.6292 -80.5589 201° Southwest 297 342 8,900 -1,929 Descending Atlanta Center
Sun 04:33:44 PM 35.5964 -80.5781 205° Southwest 288 331 7,900 -2,000 Descending Atlanta Center
Sun 04:34:20 PM 35.5572 -80.5950 199° South 291 335 6,900 -1,770 Descending Atlanta Center
Sun 04:34:45 PM 35.5244 -80.6144 206° Southwest 281 323 6,100 -900 Descending Atlanta Center
Sun 04:35:20 PM 35.4875 -80.6311 200° South 284 327 6,000 -98 Descending Atlanta Center
Sun 04:35:46 PM 35.4503 -80.6531 206° Southwest 262 302 6,000  Level Atlanta Center
Sun 04:36:20 PM 35.4214 -80.6644 198° South 269 310 6,000 -197 Level Atlanta Center
Sun 04:36:47 PM 35.3953 -80.6961 225° Southwest 237 273 5,800 -900 Descending Atlanta Center
Sun 04:37:20 PM 35.3750 -80.7200 224° Southwest 246 283 5,100 -1,433 Descending Atlanta Center
Sun 04:37:54 PM 35.3489 -80.7592 231° Southwest 231 266 4,200 -1,200 Descending Atlanta Center
Sun 04:38:20 PM 35.3289 -80.7853 227° Southwest 236 272 3,900 -692 Descending Atlanta Center

Login

Don't have an account? Register now (free) for customized features, flight alerts, and more!